General Aviation Weather

Text Reports

Enter one or more of the following location identifiers separated by a space:

Zip Code, Four-Character ICAO or Three-Character IATA airport codes.

METAR - Aviation Routine Weather Report
K3T5 - La Grange, Texas
Updated at 9:35 AM GMT on July 12, 2014 (4:35 AM CDT):
METAR K3T5 120935Z AUTO 00000KT 7SM SCT009 22/21 A3012 RMK AO2 T02170212
TAF - Terminal Area Forecast
K3T5 - La Grange, Texas
Updated at 9:35 AM GMT on July 12, 2014 (4:35 AM CDT):
No TAF is currently available for this location.
Decoded:
No decoded TAF is available.
PIREP - Pilot Weather Report
K3T5 - La Grange, Texas
Updated at 9:35 AM GMT on July 12, 2014 (4:35 AM CDT):
No PIREP is currently available for this location.
AIRMET - Airmens Meteorological Information
K3T5 - La Grange, Texas
Updated at 9:35 AM GMT on July 12, 2014 (4:35 AM CDT):
No AIRMET is currently available for this location.
SIGMET - Significant Meteorological Information
K3T5 - La Grange, Texas
Updated at 9:35 AM GMT on July 12, 2014 (4:35 AM CDT):
No SIGMET is currently available for this location.
NOTAM - Notice to Airmen
K3T5 - La Grange, Texas
Updated at 9:35 AM GMT on July 12, 2014 (4:35 AM CDT):
No NOTAM is currently available for this location.
Forecast Area
K3T5 - La Grange, Texas
Updated at 9:35 AM GMT on July 12, 2014 (4:35 AM CDT):
No NOTAM is currently available for this location.
Aviation Weather Maps